Terminal Aerodrome Forecast
Issued by NWS

Home | Current Version | Previous Version | Text Only | Print | Product List | Glossary On
Versions: 1 2 3 4 5 6 7 8 9 10 11 12
000
FTUS45 KPSR 040520
TAFBLH
TAF
KBLH 040520Z 0406/0506 18011KT P6SM SKC
     FM041700 18013G20KT P6SM FEW250
     FM050400 20009KT P6SM FEW250=

USA.gov is the U.S. government's official web portal to all federal, state and local government web resources and services.